createdAt,value
2024-01-15T00:00:25.318Z,99260.50
2024-01-15T00:00:57.250Z,99265.56
2024-01-15T00:01:29.186Z,99270.63
2024-01-15T00:02:01.003Z,99262.03
2024-01-15T00:02:32.809Z,99265.38
2024-01-15T00:03:05.039Z,99253.47
2024-01-15T00:03:37.001Z,99266.31
2024-01-15T00:04:08.964Z,99262.88
2024-01-15T00:04:41.678Z,99256.16
2024-01-15T00:05:13.514Z,99256.91
2024-01-15T00:05:45.360Z,99266.22
2024-01-15T00:06:17.320Z,99264.47
2024-01-15T00:06:50.339Z,99261.03
2024-01-15T00:07:22.304Z,99265.25
2024-01-15T00:07:54.129Z,99249.16
2024-01-15T00:08:25.976Z,99250.84
2024-01-15T00:08:59.364Z,99248.28
2024-01-15T00:09:31.286Z,99246.47
2024-01-15T00:10:03.629Z,99238.78
2024-01-15T00:10:35.448Z,99237.88
2024-01-15T00:11:07.252Z,99237.00
2024-01-15T00:11:39.116Z,99240.34
2024-01-15T00:12:11.026Z,99239.47
2024-01-15T00:12:43.080Z,99231.00
2024-01-15T00:13:14.935Z,99225.06
2024-01-15T00:13:47.200Z,99229.34
2024-01-15T00:14:21.434Z,99224.13
2024-01-15T00:14:53.424Z,99232.59
2024-01-15T00:15:25.250Z,99226.59
2024-01-15T00:15:57.330Z,99218.06
2024-01-15T00:16:29.169Z,99224.00
2024-01-15T00:17:00.973Z,99224.84
2024-01-15T00:17:32.813Z,99213.72
2024-01-15T00:18:05.107Z,99208.59
2024-01-15T00:18:37.249Z,99216.19
2024-01-15T00:19:09.279Z,99212.75
2024-01-15T00:19:41.371Z,99211.84
2024-01-15T00:20:13.833Z,99207.59
2024-01-15T00:20:45.619Z,99204.22
2024-01-15T00:21:17.479Z,99207.59
2024-01-15T00:21:49.484Z,99202.50
2024-01-15T00:22:21.411Z,99206.75
2024-01-15T00:22:53.190Z,99197.38
2024-01-15T00:23:24.988Z,99204.13
2024-01-15T00:23:56.781Z,99199.00
2024-01-15T00:24:28.639Z,99196.44
2024-01-15T00:25:00.456Z,99199.84
2024-01-15T00:25:32.465Z,99202.38
2024-01-15T00:26:04.849Z,99196.34
2024-01-15T00:26:37.527Z,99198.94
2024-01-15T00:27:09.938Z,99203.22
2024-01-15T00:27:42.024Z,99190.44
2024-01-15T00:28:13.839Z,99200.66
2024-01-15T00:28:45.677Z,99196.34
2024-01-15T00:29:17.540Z,99192.06
2024-01-15T00:29:49.372Z,99191.16
2024-01-15T00:30:21.634Z,99193.72
2024-01-15T00:30:53.721Z,99193.72
2024-01-15T00:31:25.663Z,99194.59
2024-01-15T00:31:57.536Z,99191.22
2024-01-15T00:32:29.433Z,99192.06
2024-01-15T00:33:01.351Z,99196.34
2024-01-15T00:33:33.420Z,99201.44
2024-01-15T00:34:05.404Z,99193.00
2024-01-15T00:34:37.379Z,99193.88
2024-01-15T00:35:09.521Z,99197.22
2024-01-15T00:35:42.107Z,99187.88
2024-01-15T00:36:15.510Z,99182.75
2024-01-15T00:36:47.445Z,99187.88
2024-01-15T00:37:19.243Z,99188.69
2024-01-15T00:37:51.027Z,99184.47
2024-01-15T00:38:22.883Z,99179.41
2024-01-15T00:38:55.124Z,99186.25
2024-01-15T00:39:27.601Z,99184.53
2024-01-15T00:39:59.438Z,99186.25
2024-01-15T00:40:31.201Z,99183.69
2024-01-15T00:41:03.992Z,99183.75
2024-01-15T00:41:35.765Z,99186.25
2024-01-15T00:42:07.692Z,99180.31
2024-01-15T00:42:39.650Z,99186.34
2024-01-15T00:43:11.541Z,99186.34
2024-01-15T00:43:43.338Z,99181.34
2024-01-15T00:44:15.188Z,99183.00
2024-01-15T00:44:47.007Z,99186.47
2024-01-15T00:45:19.063Z,99179.69
2024-01-15T00:45:51.018Z,99183.97
2024-01-15T00:46:23.121Z,99175.44
2024-01-15T00:46:54.940Z,99175.50
2024-01-15T00:47:27.244Z,99173.03
2024-01-15T00:48:00.742Z,99171.34
2024-01-15T00:48:33.191Z,99165.38
2024-01-15T00:49:05.372Z,99173.03
2024-01-15T00:49:37.292Z,99165.38
2024-01-15T00:50:09.634Z,99170.47
2024-01-15T00:50:41.402Z,99167.94
2024-01-15T00:51:13.278Z,99175.63
2024-01-15T00:51:45.236Z,99179.91
2024-01-15T00:52:17.159Z,99177.34
2024-01-15T00:52:48.968Z,99183.28
2024-01-15T00:53:23.164Z,99180.00
2024-01-15T00:53:55.015Z,99172.41
2024-01-15T00:54:27.615Z,99176.72
2024-01-15T00:54:59.502Z,99176.66
2024-01-15T00:55:31.324Z,99171.56
2024-01-15T00:56:04.231Z,99173.28
2024-01-15T00:56:36.156Z,99174.97
2024-01-15T00:57:08.039Z,99178.38
2024-01-15T00:57:41.467Z,99175.81
2024-01-15T00:58:13.327Z,99176.72
2024-01-15T00:58:45.125Z,99175.88
2024-01-15T00:59:17.006Z,99173.31
2024-01-15T00:59:49.357Z,99175.09
2024-01-15T01:00:21.378Z,99175.13
2024-01-15T01:00:53.379Z,99173.41
2024-01-15T01:01:25.325Z,99170.84
2024-01-15T01:01:57.338Z,99167.41
2024-01-15T01:02:29.180Z,99168.19
2024-01-15T01:03:01.099Z,99162.19
2024-01-15T01:03:33.057Z,99169.84
2024-01-15T01:04:05.238Z,99167.31
2024-01-15T01:04:37.175Z,99170.72
2024-01-15T01:05:09.044Z,99173.28
2024-01-15T01:05:41.061Z,99164.81
2024-01-15T01:06:12.933Z,99164.91
2024-01-15T01:06:44.843Z,99171.84
2024-01-15T01:07:16.773Z,99169.38
2024-01-15T01:07:48.602Z,99169.41
2024-01-15T01:08:20.379Z,99171.97
2024-01-15T01:08:52.198Z,99171.19
2024-01-15T01:09:24.088Z,99165.44
2024-01-15T01:09:56.589Z,99176.53
2024-01-15T01:10:28.938Z,99175.75
2024-01-15T01:11:00.832Z,99169.75
2024-01-15T01:11:32.606Z,99162.88
2024-01-15T01:12:04.632Z,99166.25
2024-01-15T01:12:36.483Z,99164.53
2024-01-15T01:13:08.379Z,99173.94
2024-01-15T01:13:40.338Z,99173.06
2024-01-15T01:14:12.157Z,99168.81
2024-01-15T01:14:43.982Z,99176.66
2024-01-15T01:15:15.844Z,99176.78
2024-01-15T01:15:47.761Z,99164.06
2024-01-15T01:16:19.569Z,99170.91
2024-01-15T01:16:51.345Z,99164.94
2024-01-15T01:17:23.924Z,99164.94
2024-01-15T01:17:56.076Z,99157.22
2024-01-15T01:18:28.204Z,99158.06
2024-01-15T01:19:00.217Z,99162.31
2024-01-15T01:19:32.663Z,99158.06
2024-01-15T01:20:07.337Z,99162.44
2024-01-15T01:20:39.451Z,99165.94
2024-01-15T01:21:11.448Z,99163.44
2024-01-15T01:21:43.310Z,99166.88
2024-01-15T01:22:15.149Z,99165.19
2024-01-15T01:22:47.008Z,99167.78
2024-01-15T01:23:19.080Z,99159.25
2024-01-15T01:23:50.876Z,99166.06
2024-01-15T01:24:22.755Z,99160.13
2024-01-15T01:24:54.617Z,99156.69
2024-01-15T01:25:26.433Z,99160.91
2024-01-15T01:25:58.321Z,99160.06
2024-01-15T01:26:30.122Z,99159.25
2024-01-15T01:27:01.981Z,99156.63
2024-01-15T01:27:33.970Z,99148.91
2024-01-15T01:28:05.906Z,99143.81
2024-01-15T01:28:37.772Z,99148.91
2024-01-15T01:29:10.136Z,99145.47
2024-01-15T01:29:41.965Z,99148.03
2024-01-15T01:30:13.989Z,99149.75
2024-01-15T01:30:46.033Z,99150.59
2024-01-15T01:31:18.009Z,99149.81
2024-01-15T01:31:50.230Z,99151.47
2024-01-15T01:32:22.023Z,99152.31
2024-01-15T01:32:53.839Z,99148.88
2024-01-15T01:33:25.775Z,99151.47
2024-01-15T01:33:57.721Z,99149.75
2024-01-15T01:34:32.892Z,99141.16
2024-01-15T01:35:06.452Z,99140.31
2024-01-15T01:35:38.598Z,99142.91
2024-01-15T01:36:10.952Z,99150.53
2024-01-15T01:36:44.087Z,99144.53
2024-01-15T01:37:15.951Z,99147.19
2024-01-15T01:37:47.778Z,99136.97
2024-01-15T01:38:19.633Z,99133.59
2024-01-15T01:38:51.534Z,99136.06
2024-01-15T01:39:23.877Z,99128.41
2024-01-15T01:39:55.772Z,99130.09
2024-01-15T01:40:27.725Z,99130.16
2024-01-15T01:40:59.557Z,99128.47
2024-01-15T01:41:31.353Z,99124.28
2024-01-15T01:42:03.171Z,99138.78
2024-01-15T01:42:35.040Z,99141.31
2024-01-15T01:43:06.955Z,99140.38
2024-01-15T01:43:38.739Z,99123.34
2024-01-15T01:44:10.500Z,99129.34
2024-01-15T01:44:42.535Z,99120.81
2024-01-15T01:45:14.380Z,99113.97
2024-01-15T01:45:46.399Z,99115.69
2024-01-15T01:46:18.784Z,99119.91
2024-01-15T01:46:50.807Z,99125.09
2024-01-15T01:47:22.803Z,99121.69
2024-01-15T01:47:54.858Z,99114.91
2024-01-15T01:48:27.573Z,99105.56
2024-01-15T01:49:02.728Z,99103.84
2024-01-15T01:49:37.068Z,99098.00
2024-01-15T01:50:09.527Z,99097.16
2024-01-15T01:50:41.477Z,99095.50
2024-01-15T01:51:13.398Z,99103.94
2024-01-15T01:51:46.116Z,99107.44
2024-01-15T01:52:17.917Z,99103.31
2024-01-15T01:52:50.368Z,99105.91
2024-01-15T01:53:23.259Z,99103.41
2024-01-15T01:53:55.115Z,99099.97
2024-01-15T01:54:32.456Z,99096.53
2024-01-15T01:55:07.202Z,99097.53
2024-01-15T01:55:40.263Z,99097.69
2024-01-15T01:56:12.985Z,99091.75
2024-01-15T01:56:44.993Z,99099.38
2024-01-15T01:57:19.085Z,99096.69
2024-01-15T01:57:52.259Z,99090.78
2024-01-15T01:58:24.303Z,99097.53
2024-01-15T01:58:56.363Z,99091.56
2024-01-15T01:59:28.816Z,99101.16
2024-01-15T02:00:01.337Z,99096.94
2024-01-15T02:00:36.301Z,99107.16
2024-01-15T02:01:08.769Z,99109.69
2024-01-15T02:01:42.136Z,99099.56
2024-01-15T02:02:14.814Z,99098.84
2024-01-15T02:02:46.694Z,99094.66
2024-01-15T02:03:18.614Z,99088.72
2024-01-15T02:03:50.635Z,99092.22
2024-01-15T02:04:25.657Z,99091.41
2024-01-15T02:04:57.690Z,99089.59
2024-01-15T02:05:31.331Z,99092.97
2024-01-15T02:06:03.141Z,99088.72
2024-01-15T02:06:35.345Z,99090.38
2024-01-15T02:07:07.483Z,99091.19
2024-01-15T02:07:39.638Z,99089.41
2024-01-15T02:08:11.475Z,99090.28
2024-01-15T02:08:45.055Z,99097.06
2024-01-15T02:09:16.917Z,99095.41
2024-01-15T02:09:49.046Z,99094.53
2024-01-15T02:10:21.049Z,99102.19
2024-01-15T02:10:52.822Z,99098.78
2024-01-15T02:11:24.931Z,99095.34
2024-01-15T02:11:57.198Z,99098.84
2024-01-15T02:12:29.064Z,99097.31
2024-01-15T02:13:01.072Z,99107.63
2024-01-15T02:13:32.886Z,99104.34
2024-01-15T02:14:04.760Z,99107.75
2024-01-15T02:14:36.533Z,99110.28
2024-01-15T02:15:08.768Z,99103.59
2024-01-15T02:15:41.355Z,99106.16
2024-01-15T02:16:13.139Z,99103.59
2024-01-15T02:16:44.966Z,99097.59
2024-01-15T02:17:16.845Z,99087.34
2024-01-15T02:18:02.986Z,99084.81
2024-01-15T02:18:45.579Z,99084.78
2024-01-15T02:19:18.506Z,99082.22
2024-01-15T02:19:51.591Z,99087.25
2024-01-15T02:20:23.656Z,99094.91
2024-01-15T02:20:55.897Z,99089.00
2024-01-15T02:21:29.845Z,99092.50
2024-01-15T02:22:01.719Z,99091.78
2024-01-15T02:22:33.581Z,99092.69
2024-01-15T02:23:11.991Z,99093.47
2024-01-15T02:23:43.848Z,99090.91
2024-01-15T02:24:15.749Z,99091.00
2024-01-15T02:24:47.652Z,99081.72
2024-01-15T02:25:20.544Z,99080.03
2024-01-15T02:25:52.607Z,99071.59
2024-01-15T02:26:24.621Z,99079.25
2024-01-15T02:26:56.442Z,99075.78
2024-01-15T02:27:28.294Z,99078.28
2024-01-15T02:28:00.178Z,99080.84
2024-01-15T02:28:33.602Z,99076.56
2024-01-15T02:29:08.051Z,99078.28
2024-01-15T02:29:40.463Z,99074.00
2024-01-15T02:30:15.206Z,99077.41
2024-01-15T02:30:47.237Z,99074.00
2024-01-15T02:31:19.384Z,99077.56
2024-01-15T02:31:51.308Z,99072.63
2024-01-15T02:32:23.126Z,99072.66
2024-01-15T02:32:55.011Z,99082.19
2024-01-15T02:33:26.970Z,99073.69
2024-01-15T02:33:59.168Z,99060.94
2024-01-15T02:34:36.147Z,99066.13
2024-01-15T02:35:08.228Z,99063.47
2024-01-15T02:35:40.328Z,99070.25
2024-01-15T02:36:12.198Z,99064.31
2024-01-15T02:36:44.184Z,99060.13
2024-01-15T02:37:16.047Z,99055.00
2024-01-15T02:37:47.888Z,99053.25
2024-01-15T02:38:20.251Z,99054.09
2024-01-15T02:38:52.056Z,99043.88
2024-01-15T02:39:23.955Z,99050.72
2024-01-15T02:39:55.981Z,99044.72
2024-01-15T02:40:27.744Z,99038.69
2024-01-15T02:41:00.022Z,99039.56
2024-01-15T02:41:31.835Z,99043.72
2024-01-15T02:42:03.705Z,99034.34
2024-01-15T02:42:35.963Z,99034.41
2024-01-15T02:43:07.791Z,99040.31
2024-01-15T02:43:39.583Z,99042.78
2024-01-15T02:44:11.441Z,99048.75
2024-01-15T02:44:43.304Z,99053.88
2024-01-15T02:45:15.156Z,99058.13
2024-01-15T02:45:48.076Z,99060.66
2024-01-15T02:46:20.048Z,99069.22
2024-01-15T02:46:52.288Z,99079.59
2024-01-15T02:47:24.058Z,99086.53
2024-01-15T02:47:55.968Z,99090.84
2024-01-15T02:48:27.976Z,99090.09
2024-01-15T02:49:00.050Z,99083.31
2024-01-15T02:49:33.629Z,99084.22
2024-01-15T02:50:06.330Z,99082.59
2024-01-15T02:50:38.154Z,99081.78
2024-01-15T02:51:10.131Z,99080.94
2024-01-15T02:51:42.086Z,99075.06
2024-01-15T02:52:13.922Z,99081.03
2024-01-15T02:52:45.689Z,99081.91
2024-01-15T02:53:17.526Z,99082.88
2024-01-15T02:53:51.454Z,99078.72
2024-01-15T02:54:23.390Z,99077.03
2024-01-15T02:54:55.255Z,99076.22
2024-01-15T02:55:27.091Z,99066.13
2024-01-15T02:55:58.891Z,99070.34
2024-01-15T02:56:30.660Z,99066.91
2024-01-15T02:57:02.529Z,99055.00
2024-01-15T02:57:34.687Z,99062.66
2024-01-15T02:58:06.543Z,99058.38
2024-01-15T02:58:38.326Z,99057.53
2024-01-15T02:59:10.118Z,99056.66
2024-01-15T02:59:41.962Z,99065.16
2024-01-15T03:00:14.101Z,99049.84
2024-01-15T03:00:47.438Z,99060.06
2024-01-15T03:01:23.193Z,99060.94
2024-01-15T03:01:55.140Z,99052.44
2024-01-15T03:02:27.060Z,99051.59
2024-01-15T03:02:58.988Z,99054.16
2024-01-15T03:03:30.926Z,99046.56
2024-01-15T03:04:02.961Z,99039.00
2024-01-15T03:04:34.914Z,99038.22
2024-01-15T03:05:08.784Z,99039.06
2024-01-15T03:05:40.708Z,99044.25
2024-01-15T03:06:12.701Z,99040.03
2024-01-15T03:06:44.638Z,99039.97
2024-01-15T03:07:16.973Z,99041.69
2024-01-15T03:07:49.245Z,99039.94
2024-01-15T03:08:21.076Z,99037.41
2024-01-15T03:08:52.923Z,99033.13
2024-01-15T03:09:24.938Z,99033.13
2024-01-15T03:09:56.826Z,99034.06
2024-01-15T03:10:28.674Z,99034.13
2024-01-15T03:11:00.542Z,99034.13
2024-01-15T03:11:39.116Z,99028.25
2024-01-15T03:12:12.189Z,99030.75
2024-01-15T03:12:44.265Z,99030.72
2024-01-15T03:13:16.233Z,99029.91
2024-01-15T03:13:48.058Z,99025.69
2024-01-15T03:14:19.935Z,99023.13
2024-01-15T03:14:51.787Z,99023.06
2024-01-15T03:15:23.618Z,99034.94
2024-01-15T03:15:55.986Z,99028.16
2024-01-15T03:16:27.872Z,99026.41
2024-01-15T03:16:59.816Z,99026.34
2024-01-15T03:17:31.694Z,99021.25
2024-01-15T03:18:03.604Z,99017.03
2024-01-15T03:18:35.732Z,99028.00
2024-01-15T03:19:07.729Z,99026.28
2024-01-15T03:19:39.721Z,99022.94
2024-01-15T03:20:12.189Z,99014.41
2024-01-15T03:20:43.983Z,99017.78
2024-01-15T03:21:15.813Z,99012.69
2024-01-15T03:21:47.717Z,99012.66
2024-01-15T03:22:19.574Z,99003.25
2024-01-15T03:22:51.328Z,99014.34
2024-01-15T03:23:23.082Z,99010.09
2024-01-15T03:23:54.976Z,99012.59
2024-01-15T03:24:26.774Z,99017.69
2024-01-15T03:24:59.315Z,99006.69
2024-01-15T03:25:31.135Z,98998.16
2024-01-15T03:26:02.982Z,98998.97
2024-01-15T03:26:34.811Z,98994.72
2024-01-15T03:27:06.905Z,99013.44
2024-01-15T03:27:38.795Z,99021.13
2024-01-15T03:28:10.666Z,99020.38
2024-01-15T03:28:42.437Z,99022.19
2024-01-15T03:29:14.230Z,99016.28
2024-01-15T03:29:45.992Z,99024.78
2024-01-15T03:30:17.943Z,99028.19
2024-01-15T03:30:49.888Z,99027.41
2024-01-15T03:31:21.820Z,99029.06
2024-01-15T03:31:53.854Z,99027.38
2024-01-15T03:32:25.714Z,99024.81
2024-01-15T03:32:57.571Z,99028.28
2024-01-15T03:33:29.572Z,99033.47
2024-01-15T03:34:01.645Z,99035.22
2024-01-15T03:34:33.643Z,99033.63
2024-01-15T03:35:05.880Z,99040.47
2024-01-15T03:35:37.794Z,99044.03
2024-01-15T03:36:10.139Z,99041.56
2024-01-15T03:36:42.054Z,99030.69
2024-01-15T03:37:13.901Z,99024.69
2024-01-15T03:37:45.802Z,99026.31
2024-01-15T03:38:17.624Z,99025.34
2024-01-15T03:38:49.385Z,99035.56
2024-01-15T03:39:21.256Z,99028.75
2024-01-15T03:39:53.214Z,99023.56
2024-01-15T03:40:25.299Z,99028.69
2024-01-15T03:40:57.137Z,99026.06
2024-01-15T03:41:29.215Z,99021.81
2024-01-15T03:42:00.989Z,99023.47
2024-01-15T03:42:32.904Z,99024.34
2024-01-15T03:43:05.020Z,99023.47
2024-01-15T03:43:36.839Z,99029.38
2024-01-15T03:44:08.673Z,99028.50
2024-01-15T03:44:40.527Z,99034.47
2024-01-15T03:45:12.371Z,99036.19
2024-01-15T03:45:44.242Z,99031.09
2024-01-15T03:46:16.029Z,99048.09
2024-01-15T03:46:47.777Z,99050.78
2024-01-15T03:47:19.557Z,99057.63
2024-01-15T03:47:51.578Z,99059.34
2024-01-15T03:48:23.687Z,99061.09
2024-01-15T03:48:55.707Z,99060.31
2024-01-15T03:49:27.733Z,99061.25
2024-01-15T03:49:59.641Z,99050.19
2024-01-15T03:50:31.415Z,99056.06
2024-01-15T03:51:03.311Z,99045.84
2024-01-15T03:51:35.247Z,99041.56
2024-01-15T03:52:07.047Z,99051.72
2024-01-15T03:52:38.988Z,99050.84
2024-01-15T03:53:10.759Z,99060.22
2024-01-15T03:53:42.556Z,99061.09
2024-01-15T03:54:15.313Z,99050.97
2024-01-15T03:54:48.472Z,99050.06
2024-01-15T03:55:20.434Z,99056.88
2024-01-15T03:55:52.760Z,99050.13
2024-01-15T03:56:24.634Z,99057.75
2024-01-15T03:56:56.483Z,99056.03
2024-01-15T03:57:28.381Z,99054.28
2024-01-15T03:58:00.378Z,99049.19
2024-01-15T03:58:32.312Z,99048.25
2024-01-15T03:59:04.146Z,99048.31
2024-01-15T03:59:36.045Z,99052.53
2024-01-15T04:00:08.866Z,99057.66
2024-01-15T04:00:40.771Z,99055.19
2024-01-15T04:01:13.286Z,99054.34
2024-01-15T04:01:54.414Z,99051.72
2024-01-15T04:02:26.222Z,99044.91
2024-01-15T04:02:57.994Z,99057.66
2024-01-15T04:03:29.986Z,99056.78
2024-01-15T04:04:01.936Z,99051.72
2024-01-15T04:04:33.911Z,99045.78
2024-01-15T04:05:06.093Z,99044.13
2024-01-15T04:05:37.942Z,99040.69
2024-01-15T04:06:09.825Z,99039.09
2024-01-15T04:06:41.754Z,99038.22
2024-01-15T04:07:13.796Z,99036.50
2024-01-15T04:07:45.711Z,99030.50
2024-01-15T04:08:17.527Z,99028.81
2024-01-15T04:08:49.407Z,99019.59
2024-01-15T04:09:21.265Z,99016.16
2024-01-15T04:09:53.249Z,99017.00
2024-01-15T04:10:25.278Z,99022.84
2024-01-15T04:10:57.186Z,99028.78
2024-01-15T04:11:29.030Z,99030.44
2024-01-15T04:12:00.834Z,99026.28
2024-01-15T04:12:32.752Z,99029.78
2024-01-15T04:13:04.803Z,99022.13
2024-01-15T04:13:37.383Z,99014.44
2024-01-15T04:14:10.113Z,99008.44
2024-01-15T04:14:41.937Z,99010.16
2024-01-15T04:15:13.996Z,99014.41
2024-01-15T04:15:45.886Z,99020.34
2024-01-15T04:16:17.760Z,99021.13
2024-01-15T04:16:49.620Z,99020.31
2024-01-15T04:17:22.938Z,99013.59
2024-01-15T04:17:54.984Z,99016.19
2024-01-15T04:18:26.860Z,99017.06
2024-01-15T04:18:59.441Z,99023.06
2024-01-15T04:19:31.351Z,99019.69
2024-01-15T04:20:03.163Z,99014.66
2024-01-15T04:20:34.913Z,99021.44
2024-01-15T04:21:07.599Z,99022.28
2024-01-15T04:21:39.820Z,99015.59
2024-01-15T04:22:11.691Z,99016.44
2024-01-15T04:22:45.086Z,99019.78
2024-01-15T04:23:16.954Z,99015.53
2024-01-15T04:23:48.716Z,99012.94
2024-01-15T04:24:20.504Z,99018.13
2024-01-15T04:24:52.391Z,99032.66
2024-01-15T04:25:24.279Z,99030.16
2024-01-15T04:25:56.165Z,99027.66
2024-01-15T04:26:28.015Z,99020.81
2024-01-15T04:27:00.057Z,99030.94
2024-01-15T04:27:31.980Z,99028.41
2024-01-15T04:28:03.898Z,99019.97
2024-01-15T04:28:35.713Z,99025.06
2024-01-15T04:29:07.650Z,99022.50
2024-01-15T04:29:41.680Z,99025.84
2024-01-15T04:30:14.257Z,99019.97
2024-01-15T04:30:46.232Z,99030.13
2024-01-15T04:31:28.416Z,99024.16
2024-01-15T04:32:00.601Z,99021.59
2024-01-15T04:32:32.493Z,99012.22
2024-01-15T04:33:04.583Z,99004.53
2024-01-15T04:33:36.736Z,99015.56
2024-01-15T04:34:08.724Z,99018.13
2024-01-15T04:34:40.740Z,99016.38
2024-01-15T04:35:13.821Z,99016.47
2024-01-15T04:35:45.656Z,98997.84
2024-01-15T04:36:17.588Z,98995.25
2024-01-15T04:36:49.742Z,99004.56
2024-01-15T04:37:21.666Z,99007.19
2024-01-15T04:37:53.981Z,99005.53
2024-01-15T04:38:25.809Z,99000.50
2024-01-15T04:38:57.581Z,98997.94
2024-01-15T04:39:30.862Z,99000.34
2024-01-15T04:40:05.166Z,99003.78
2024-01-15T04:40:37.088Z,99001.28
2024-01-15T04:41:14.885Z,99000.44
2024-01-15T04:41:46.733Z,99005.53
2024-01-15T04:42:18.569Z,98999.53
2024-01-15T04:42:50.468Z,98996.97
2024-01-15T04:43:22.429Z,99008.94
2024-01-15T04:43:54.250Z,99002.19
2024-01-15T04:44:26.078Z,99009.88
2024-01-15T04:44:57.988Z,99002.19
2024-01-15T04:45:30.174Z,98993.66
2024-01-15T04:46:02.118Z,98995.47
2024-01-15T04:46:33.918Z,98992.06
2024-01-15T04:47:05.715Z,98997.13
2024-01-15T04:47:38.071Z,99002.19
2024-01-15T04:48:10.012Z,99000.59
2024-01-15T04:48:41.920Z,99004.06
2024-01-15T04:49:14.147Z,98999.13
2024-01-15T04:49:46.135Z,99006.75
2024-01-15T04:50:18.010Z,99009.28
2024-01-15T04:50:49.822Z,99004.97
2024-01-15T04:51:21.721Z,99004.94
2024-01-15T04:51:53.592Z,99010.88
2024-01-15T04:52:25.529Z,99018.56
2024-01-15T04:52:57.336Z,99012.69
2024-01-15T04:53:29.197Z,99016.16
2024-01-15T04:54:01.002Z,99004.34
2024-01-15T04:54:32.899Z,99012.78
2024-01-15T04:55:04.894Z,99004.25
2024-01-15T04:55:36.674Z,99005.91
2024-01-15T04:56:08.601Z,99013.53
2024-01-15T04:56:40.837Z,99005.84
2024-01-15T04:57:12.787Z,99013.41
2024-01-15T04:57:45.104Z,99005.75
2024-01-15T04:58:17.027Z,99009.97
2024-01-15T04:58:48.841Z,99015.91
2024-01-15T04:59:20.645Z,99006.56
2024-01-15T04:59:52.493Z,99015.03
2024-01-15T05:00:24.354Z,99020.13
2024-01-15T05:00:56.293Z,99027.72
2024-01-15T05:01:32.735Z,99030.38
2024-01-15T05:02:04.589Z,99029.53
2024-01-15T05:02:36.486Z,99026.09
2024-01-15T05:03:08.384Z,99031.13
2024-01-15T05:03:40.460Z,99026.88
2024-01-15T05:04:12.539Z,99021.72
2024-01-15T05:04:44.454Z,99023.44
2024-01-15T05:05:16.809Z,99022.56
2024-01-15T05:05:48.741Z,99027.59
2024-01-15T05:06:20.654Z,99028.41
2024-01-15T05:06:52.602Z,99019.91
2024-01-15T05:07:24.592Z,99010.53
2024-01-15T05:07:56.470Z,99017.28
2024-01-15T05:08:28.451Z,99017.25
2024-01-15T05:09:00.671Z,99020.59
2024-01-15T05:09:33.256Z,99021.44
2024-01-15T05:10:05.755Z,99016.34
2024-01-15T05:10:37.768Z,99018.03
2024-01-15T05:11:09.621Z,99022.25
2024-01-15T05:11:41.462Z,99019.75
2024-01-15T05:12:13.499Z,99020.63
2024-01-15T05:12:45.464Z,99029.09
2024-01-15T05:13:17.329Z,99025.72
2024-01-15T05:13:49.348Z,99019.78
2024-01-15T05:14:21.122Z,99013.81
2024-01-15T05:14:52.944Z,99016.34
2024-01-15T05:15:24.801Z,99019.75
2024-01-15T05:15:56.933Z,99020.50
2024-01-15T05:16:28.796Z,99023.09
2024-01-15T05:17:00.591Z,99011.25
2024-01-15T05:17:32.414Z,99014.72
2024-01-15T05:18:04.355Z,99009.59
2024-01-15T05:18:38.437Z,99007.88
2024-01-15T05:19:10.414Z,99007.78
2024-01-15T05:19:42.372Z,99013.69
2024-01-15T05:20:14.405Z,99014.59
2024-01-15T05:20:46.355Z,99005.22
2024-01-15T05:21:18.218Z,99016.19
2024-01-15T05:21:50.139Z,99004.41
2024-01-15T05:22:22.358Z,99013.81
2024-01-15T05:22:54.175Z,99015.47
2024-01-15T05:23:26.086Z,99012.06
2024-01-15T05:23:57.856Z,99010.38
2024-01-15T05:24:29.686Z,99013.81
2024-01-15T05:25:01.567Z,99010.44
2024-01-15T05:25:33.420Z,99014.69
2024-01-15T05:26:05.365Z,99020.69
2024-01-15T05:26:37.240Z,99017.31
2024-01-15T05:27:09.084Z,99013.97
2024-01-15T05:27:40.988Z,99020.69
2024-01-15T05:28:13.003Z,99018.13
2024-01-15T05:28:44.838Z,99016.41
2024-01-15T05:29:16.652Z,99019.75
2024-01-15T05:29:48.468Z,99014.69
2024-01-15T05:30:20.363Z,99018.13
2024-01-15T05:30:52.582Z,99012.25
2024-01-15T05:31:24.572Z,99018.16
2024-01-15T05:31:58.255Z,99017.28
2024-01-15T05:32:31.986Z,99022.28
2024-01-15T05:33:04.425Z,99026.56
2024-01-15T05:33:36.313Z,99022.41
2024-01-15T05:34:08.248Z,99016.59
2024-01-15T05:34:40.583Z,99024.25
2024-01-15T05:35:12.452Z,99029.28
2024-01-15T05:35:44.415Z,99026.00
2024-01-15T05:36:16.250Z,99031.13
2024-01-15T05:36:49.227Z,99032.81
2024-01-15T05:37:21.174Z,99015.84
2024-01-15T05:37:52.950Z,99015.03
2024-01-15T05:38:24.874Z,99019.16
2024-01-15T05:38:56.736Z,99031.81
2024-01-15T05:39:28.636Z,99030.22
2024-01-15T05:40:00.622Z,99031.09
2024-01-15T05:40:32.680Z,99032.84
2024-01-15T05:41:04.596Z,99027.75
2024-01-15T05:41:36.416Z,99029.38
2024-01-15T05:42:08.221Z,99030.25
2024-01-15T05:42:41.015Z,99026.81
2024-01-15T05:43:12.879Z,99023.44
2024-01-15T05:43:44.702Z,99025.94
2024-01-15T05:44:16.549Z,99033.63
2024-01-15T05:44:48.389Z,99027.78
2024-01-15T05:45:20.264Z,99029.44
2024-01-15T05:45:52.334Z,99029.41
2024-01-15T05:46:24.241Z,99023.44
2024-01-15T05:46:56.038Z,99024.25
2024-01-15T05:47:27.933Z,99021.72
2024-01-15T05:47:59.887Z,99026.00
2024-01-15T05:48:31.962Z,99028.53
2024-01-15T05:49:03.908Z,99026.03
2024-01-15T05:49:35.919Z,99030.25
2024-01-15T05:50:08.160Z,99032.94
2024-01-15T05:50:40.057Z,99034.66
2024-01-15T05:51:11.898Z,99033.06
2024-01-15T05:51:43.805Z,99030.53
2024-01-15T05:52:15.771Z,99030.50
2024-01-15T05:52:47.687Z,99030.53
2024-01-15T05:53:19.471Z,99033.09
2024-01-15T05:53:52.675Z,99030.56
2024-01-15T05:54:24.925Z,99028.88
2024-01-15T05:54:56.745Z,99027.13
2024-01-15T05:55:28.553Z,99034.72
2024-01-15T05:56:00.613Z,99040.69
2024-01-15T05:56:32.461Z,99019.50
2024-01-15T05:57:04.488Z,99027.97
2024-01-15T05:57:36.315Z,99024.53
2024-01-15T05:58:08.172Z,99024.47
2024-01-15T05:58:39.930Z,99016.88
2024-01-15T05:59:15.110Z,99026.16
2024-01-15T05:59:47.804Z,99025.31
2024-01-15T06:00:19.959Z,99015.97
2024-01-15T06:00:52.009Z,99020.22
2024-01-15T06:01:23.987Z,99028.69
2024-01-15T06:01:56.103Z,99024.44
2024-01-15T06:02:27.939Z,99013.38
2024-01-15T06:03:00.568Z,99015.00
2024-01-15T06:03:32.627Z,99017.50
2024-01-15T06:04:04.810Z,99014.16
2024-01-15T06:04:36.834Z,99013.38
2024-01-15T06:05:08.674Z,99012.44
2024-01-15T06:05:40.940Z,99014.16
2024-01-15T06:06:13.041Z,99002.22
2024-01-15T06:06:44.889Z,99006.44
2024-01-15T06:07:20.638Z,99009.81
2024-01-15T06:07:55.200Z,99017.44
2024-01-15T06:08:40.287Z,99023.38
2024-01-15T06:09:18.204Z,99021.69
2024-01-15T06:09:50.412Z,99005.59
2024-01-15T06:10:22.413Z,99019.16
2024-01-15T06:10:54.345Z,99017.41
2024-01-15T06:11:31.158Z,99013.97
2024-01-15T06:12:02.917Z,99018.19
2024-01-15T06:12:35.025Z,99018.19
2024-01-15T06:13:06.966Z,99009.72
2024-01-15T06:13:38.820Z,99018.72
2024-01-15T06:14:10.631Z,99019.59
2024-01-15T06:14:43.755Z,99017.28
2024-01-15T06:15:15.599Z,99020.78
2024-01-15T06:15:47.547Z,99028.38
2024-01-15T06:16:21.270Z,99024.19
2024-01-15T06:16:53.876Z,99014.03
2024-01-15T06:17:25.768Z,99015.75
2024-01-15T06:17:57.673Z,99027.59
2024-01-15T06:18:29.643Z,99025.00
2024-01-15T06:19:01.719Z,99023.38